sensor_id;sensor_type;location;lat;lon;timestamp;temperature;humidity
2391;DHT22;22957;50.824;4.360;2023-06-10T00:01:45;22.80;99.90
2391;DHT22;22957;50.824;4.360;2023-06-10T00:04:16;22.60;99.90
2391;DHT22;22957;50.824;4.360;2023-06-10T00:06:44;22.60;99.90
2391;DHT22;22957;50.824;4.360;2023-06-10T00:09:10;22.50;99.90
2391;DHT22;22957;50.824;4.360;2023-06-10T00:11:37;22.40;99.90
2391;DHT22;22957;50.824;4.360;2023-06-10T00:14:02;22.40;99.90
2391;DHT22;22957;50.824;4.360;2023-06-10T00:16:28;22.40;99.90
2391;DHT22;22957;50.824;4.360;2023-06-10T00:18:54;22.30;99.90
2391;DHT22;22957;50.824;4.360;2023-06-10T00:21:31;22.30;99.90
2391;DHT22;22957;50.824;4.360;2023-06-10T00:24:03;22.30;99.90
2391;DHT22;22957;50.824;4.360;2023-06-10T00:26:30;22.40;99.90
2391;DHT22;22957;50.824;4.360;2023-06-10T00:28:56;22.40;99.90
2391;DHT22;22957;50.824;4.360;2023-06-10T00:31:21;22.60;99.90
2391;DHT22;22957;50.824;4.360;2023-06-10T00:33:47;22.30;99.90
2391;DHT22;22957;50.824;4.360;2023-06-10T00:36:13;22.30;99.90
2391;DHT22;22957;50.824;4.360;2023-06-10T00:38:38;22.30;99.90
2391;DHT22;22957;50.824;4.360;2023-06-10T00:41:05;22.30;99.90
2391;DHT22;22957;50.824;4.360;2023-06-10T00:43:31;22.30;99.90
2391;DHT22;22957;50.824;4.360;2023-06-10T00:45:56;22.30;99.90
2391;DHT22;22957;50.824;4.360;2023-06-10T00:48:22;22.30;99.90
2391;DHT22;22957;50.824;4.360;2023-06-10T00:50:48;22.10;99.90
2391;DHT22;22957;50.824;4.360;2023-06-10T00:53:14;22.20;99.90
2391;DHT22;22957;50.824;4.360;2023-06-10T00:55:41;22.20;99.90
2391;DHT22;22957;50.824;4.360;2023-06-10T00:58:07;22.20;99.90
2391;DHT22;22957;50.824;4.360;2023-06-10T01:00:33;22.20;99.90
2391;DHT22;22957;50.824;4.360;2023-06-10T01:02:58;22.20;99.90
2391;DHT22;22957;50.824;4.360;2023-06-10T01:05:24;22.30;99.90
2391;DHT22;22957;50.824;4.360;2023-06-10T01:07:53;22.50;99.90
2391;DHT22;22957;50.824;4.360;2023-06-10T01:10:25;22.30;99.90
2391;DHT22;22957;50.824;4.360;2023-06-10T01:12:59;22.20;99.90
2391;DHT22;22957;50.824;4.360;2023-06-10T01:15:31;22.10;99.90
2391;DHT22;22957;50.824;4.360;2023-06-10T01:18:01;21.90;99.90
2391;DHT22;22957;50.824;4.360;2023-06-10T01:20:28;22.00;99.90
2391;DHT22;22957;50.824;4.360;2023-06-10T01:22:55;22.00;99.90
2391;DHT22;22957;50.824;4.360;2023-06-10T01:25:23;22.00;99.90
2391;DHT22;22957;50.824;4.360;2023-06-10T01:28:20;21.90;99.90
2391;DHT22;22957;50.824;4.360;2023-06-10T01:33:15;21.90;99.90
2391;DHT22;22957;50.824;4.360;2023-06-10T01:35:43;21.90;99.90
2391;DHT22;22957;50.824;4.360;2023-06-10T01:38:10;22.00;99.90
2391;DHT22;22957;50.824;4.360;2023-06-10T01:40:37;22.30;99.90
2391;DHT22;22957;50.824;4.360;2023-06-10T01:43:04;22.20;99.90
2391;DHT22;22957;50.824;4.360;2023-06-10T01:45:29;22.10;99.90
2391;DHT22;22957;50.824;4.360;2023-06-10T01:47:55;22.30;99.90
2391;DHT22;22957;50.824;4.360;2023-06-10T01:50:21;22.20;99.90
2391;DHT22;22957;50.824;4.360;2023-06-10T01:52:46;22.30;99.90
2391;DHT22;22957;50.824;4.360;2023-06-10T01:55:12;22.10;99.90
2391;DHT22;22957;50.824;4.360;2023-06-10T01:57:37;22.20;99.90
2391;DHT22;22957;50.824;4.360;2023-06-10T02:00:03;22.10;99.90
2391;DHT22;22957;50.824;4.360;2023-06-10T02:02:29;22.10;99.90
2391;DHT22;22957;50.824;4.360;2023-06-10T02:04:54;21.90;99.90
2391;DHT22;22957;50.824;4.360;2023-06-10T02:07:20;21.80;99.90
2391;DHT22;22957;50.824;4.360;2023-06-10T02:09:46;21.60;99.90
2391;DHT22;22957;50.824;4.360;2023-06-10T02:12:11;21.20;99.90
2391;DHT22;22957;50.824;4.360;2023-06-10T02:14:37;21.20;99.90
2391;DHT22;22957;50.824;4.360;2023-06-10T02:17:03;21.20;99.90
2391;DHT22;22957;50.824;4.360;2023-06-10T02:19:29;21.10;99.90
2391;DHT22;22957;50.824;4.360;2023-06-10T02:21:56;21.10;99.90
2391;DHT22;22957;50.824;4.360;2023-06-10T02:24:21;21.10;99.90
2391;DHT22;22957;50.824;4.360;2023-06-10T02:26:47;21.20;99.90
2391;DHT22;22957;50.824;4.360;2023-06-10T02:29:13;21.00;99.90
2391;DHT22;22957;50.824;4.360;2023-06-10T02:31:39;21.00;99.90
2391;DHT22;22957;50.824;4.360;2023-06-10T02:34:05;20.90;99.90
2391;DHT22;22957;50.824;4.360;2023-06-10T02:36:30;20.90;99.90
2391;DHT22;22957;50.824;4.360;2023-06-10T02:38:56;21.00;99.90
2391;DHT22;22957;50.824;4.360;2023-06-10T02:41:22;20.90;99.90
2391;DHT22;22957;50.824;4.360;2023-06-10T02:43:48;20.80;99.90
2391;DHT22;22957;50.824;4.360;2023-06-10T02:46:14;20.90;99.90
2391;DHT22;22957;50.824;4.360;2023-06-10T02:48:45;21.00;99.90
2391;DHT22;22957;50.824;4.360;2023-06-10T02:51:11;21.00;99.90
2391;DHT22;22957;50.824;4.360;2023-06-10T02:53:37;21.00;99.90
2391;DHT22;22957;50.824;4.360;2023-06-10T02:56:03;20.90;99.90
2391;DHT22;22957;50.824;4.360;2023-06-10T02:58:28;21.00;99.90
2391;DHT22;22957;50.824;4.360;2023-06-10T03:00:54;21.00;99.90
2391;DHT22;22957;50.824;4.360;2023-06-10T03:03:20;20.90;99.90
2391;DHT22;22957;50.824;4.360;2023-06-10T03:05:48;20.80;99.90
2391;DHT22;22957;50.824;4.360;2023-06-10T03:08:13;20.80;99.90
2391;DHT22;22957;50.824;4.360;2023-06-10T03:10:39;20.70;99.90
2391;DHT22;22957;50.824;4.360;2023-06-10T03:13:04;20.70;99.90
2391;DHT22;22957;50.824;4.360;2023-06-10T03:15:30;20.80;99.90
2391;DHT22;22957;50.824;4.360;2023-06-10T03:17:59;20.50;99.90
2391;DHT22;22957;50.824;4.360;2023-06-10T03:20:25;20.40;99.90
2391;DHT22;22957;50.824;4.360;2023-06-10T03:22:53;20.40;99.90
2391;DHT22;22957;50.824;4.360;2023-06-10T03:25:18;20.40;99.90
2391;DHT22;22957;50.824;4.360;2023-06-10T03:27:46;20.40;99.90
2391;DHT22;22957;50.824;4.360;2023-06-10T03:30:13;20.50;99.90
2391;DHT22;22957;50.824;4.360;2023-06-10T03:32:39;20.50;99.90
2391;DHT22;22957;50.824;4.360;2023-06-10T03:35:06;20.60;99.90
2391;DHT22;22957;50.824;4.360;2023-06-10T03:37:32;20.40;99.90
2391;DHT22;22957;50.824;4.360;2023-06-10T03:39:58;20.40;99.90
2391;DHT22;22957;50.824;4.360;2023-06-10T03:42:23;20.40;99.90
2391;DHT22;22957;50.824;4.360;2023-06-10T03:44:49;20.30;99.90
2391;DHT22;22957;50.824;4.360;2023-06-10T03:47:14;20.20;99.90
2391;DHT22;22957;50.824;4.360;2023-06-10T03:49:40;20.20;99.90
2391;DHT22;22957;50.824;4.360;2023-06-10T03:52:06;20.10;99.90
2391;DHT22;22957;50.824;4.360;2023-06-10T03:54:32;20.10;99.90
2391;DHT22;22957;50.824;4.360;2023-06-10T03:56:59;20.20;99.90
2391;DHT22;22957;50.824;4.360;2023-06-10T03:59:25;20.10;99.90
2391;DHT22;22957;50.824;4.360;2023-06-10T04:01:51;20.00;99.90
2391;DHT22;22957;50.824;4.360;2023-06-10T04:04:17;20.00;99.90
2391;DHT22;22957;50.824;4.360;2023-06-10T04:06:42;20.10;99.90
2391;DHT22;22957;50.824;4.360;2023-06-10T04:09:09;20.00;99.90
2391;DHT22;22957;50.824;4.360;2023-06-10T04:11:35;20.10;99.90
2391;DHT22;22957;50.824;4.360;2023-06-10T04:14:01;20.20;99.90
2391;DHT22;22957;50.824;4.360;2023-06-10T04:16:27;20.10;99.90
2391;DHT22;22957;50.824;4.360;2023-06-10T04:18:53;20.30;99.90
2391;DHT22;22957;50.824;4.360;2023-06-10T04:21:18;20.10;99.90
2391;DHT22;22957;50.824;4.360;2023-06-10T04:23:44;20.00;99.90
2391;DHT22;22957;50.824;4.360;2023-06-10T04:26:09;20.00;99.90
2391;DHT22;22957;50.824;4.360;2023-06-10T04:28:37;20.20;99.90
2391;DHT22;22957;50.824;4.360;2023-06-10T04:31:03;20.40;99.90
2391;DHT22;22957;50.824;4.360;2023-06-10T04:33:30;20.40;99.90
2391;DHT22;22957;50.824;4.360;2023-06-10T04:35:55;20.40;99.90
2391;DHT22;22957;50.824;4.360;2023-06-10T04:38:21;20.50;99.90
2391;DHT22;22957;50.824;4.360;2023-06-10T04:40:46;20.70;99.90
2391;DHT22;22957;50.824;4.360;2023-06-10T04:43:12;20.80;99.90
2391;DHT22;22957;50.824;4.360;2023-06-10T04:45:38;20.80;99.90
2391;DHT22;22957;50.824;4.360;2023-06-10T04:48:04;20.80;99.90
2391;DHT22;22957;50.824;4.360;2023-06-10T04:50:30;20.80;99.90
2391;DHT22;22957;50.824;4.360;2023-06-10T04:52:58;20.80;99.90
2391;DHT22;22957;50.824;4.360;2023-06-10T04:55:24;20.90;99.90
2391;DHT22;22957;50.824;4.360;2023-06-10T04:57:50;20.70;99.90
2391;DHT22;22957;50.824;4.360;2023-06-10T05:00:16;20.70;99.90
2391;DHT22;22957;50.824;4.360;2023-06-10T05:02:42;20.70;99.90
2391;DHT22;22957;50.824;4.360;2023-06-10T05:05:08;21.00;99.90
2391;DHT22;22957;50.824;4.360;2023-06-10T05:07:33;21.00;99.90
2391;DHT22;22957;50.824;4.360;2023-06-10T05:09:59;21.00;99.90
2391;DHT22;22957;50.824;4.360;2023-06-10T05:12:25;21.40;99.90
2391;DHT22;22957;50.824;4.360;2023-06-10T05:14:51;21.40;99.90
2391;DHT22;22957;50.824;4.360;2023-06-10T05:17:16;21.50;99.90
2391;DHT22;22957;50.824;4.360;2023-06-10T05:19:42;21.50;99.90
2391;DHT22;22957;50.824;4.360;2023-06-10T05:22:09;21.80;99.90
2391;DHT22;22957;50.824;4.360;2023-06-10T05:24:34;22.00;99.90
2391;DHT22;22957;50.824;4.360;2023-06-10T05:27:00;21.80;99.90
2391;DHT22;22957;50.824;4.360;2023-06-10T05:29:26;21.50;99.90
2391;DHT22;22957;50.824;4.360;2023-06-10T05:31:51;21.70;99.90
2391;DHT22;22957;50.824;4.360;2023-06-10T05:34:17;21.90;99.90
2391;DHT22;22957;50.824;4.360;2023-06-10T05:36:43;21.60;99.90
2391;DHT22;22957;50.824;4.360;2023-06-10T05:39:09;21.60;99.90
2391;DHT22;22957;50.824;4.360;2023-06-10T05:41:35;21.80;99.90
2391;DHT22;22957;50.824;4.360;2023-06-10T05:44:01;21.80;99.90
2391;DHT22;22957;50.824;4.360;2023-06-10T05:46:26;22.50;99.90
2391;DHT22;22957;50.824;4.360;2023-06-10T05:48:52;21.90;99.90
2391;DHT22;22957;50.824;4.360;2023-06-10T05:51:17;22.40;99.90
2391;DHT22;22957;50.824;4.360;2023-06-10T05:53:43;22.20;99.90
2391;DHT22;22957;50.824;4.360;2023-06-10T05:56:09;22.00;99.90
2391;DHT22;22957;50.824;4.360;2023-06-10T05:58:34;22.60;99.90
2391;DHT22;22957;50.824;4.360;2023-06-10T06:01:00;22.40;99.90
2391;DHT22;22957;50.824;4.360;2023-06-10T06:03:25;22.60;99.90
2391;DHT22;22957;50.824;4.360;2023-06-10T06:05:51;23.10;99.90
2391;DHT22;22957;50.824;4.360;2023-06-10T06:08:16;22.90;99.90
2391;DHT22;22957;50.824;4.360;2023-06-10T06:10:45;22.80;99.90
2391;DHT22;22957;50.824;4.360;2023-06-10T06:13:11;23.80;99.90
2391;DHT22;22957;50.824;4.360;2023-06-10T06:15:36;23.60;99.90
2391;DHT22;22957;50.824;4.360;2023-06-10T06:18:02;23.30;99.90
2391;DHT22;22957;50.824;4.360;2023-06-10T06:20:27;23.20;99.90
2391;DHT22;22957;50.824;4.360;2023-06-10T06:22:53;23.10;99.90
2391;DHT22;22957;50.824;4.360;2023-06-10T06:25:18;22.80;99.90
2391;DHT22;22957;50.824;4.360;2023-06-10T06:27:44;22.90;99.90
2391;DHT22;22957;50.824;4.360;2023-06-10T06:30:11;23.10;99.90
2391;DHT22;22957;50.824;4.360;2023-06-10T06:32:37;22.90;99.90
2391;DHT22;22957;50.824;4.360;2023-06-10T06:35:03;23.40;99.90
2391;DHT22;22957;50.824;4.360;2023-06-10T06:37:30;23.90;99.90
2391;DHT22;22957;50.824;4.360;2023-06-10T06:39:57;23.60;99.90
2391;DHT22;22957;50.824;4.360;2023-06-10T06:42:23;24.30;99.90
2391;DHT22;22957;50.824;4.360;2023-06-10T06:44:48;24.70;99.90
2391;DHT22;22957;50.824;4.360;2023-06-10T06:47:14;24.20;99.90
2391;DHT22;22957;50.824;4.360;2023-06-10T06:49:39;25.50;99.90
2391;DHT22;22957;50.824;4.360;2023-06-10T06:52:06;24.60;99.90
2391;DHT22;22957;50.824;4.360;2023-06-10T06:54:31;24.00;99.90
2391;DHT22;22957;50.824;4.360;2023-06-10T06:56:57;23.50;99.90
2391;DHT22;22957;50.824;4.360;2023-06-10T06:59:23;24.00;99.90
2391;DHT22;22957;50.824;4.360;2023-06-10T07:01:49;24.60;99.90
2391;DHT22;22957;50.824;4.360;2023-06-10T07:04:15;24.60;99.90
2391;DHT22;22957;50.824;4.360;2023-06-10T07:06:41;25.60;99.90
2391;DHT22;22957;50.824;4.360;2023-06-10T07:09:10;24.90;99.90
2391;DHT22;22957;50.824;4.360;2023-06-10T07:11:35;24.70;99.90
2391;DHT22;22957;50.824;4.360;2023-06-10T07:14:01;25.10;99.90
2391;DHT22;22957;50.824;4.360;2023-06-10T07:16:26;25.90;99.90
2391;DHT22;22957;50.824;4.360;2023-06-10T07:18:55;26.30;99.90
2391;DHT22;22957;50.824;4.360;2023-06-10T07:21:21;25.60;99.90
2391;DHT22;22957;50.824;4.360;2023-06-10T07:23:48;25.30;99.90
2391;DHT22;22957;50.824;4.360;2023-06-10T07:26:13;26.00;99.90
2391;DHT22;22957;50.824;4.360;2023-06-10T07:28:39;25.30;99.90
2391;DHT22;22957;50.824;4.360;2023-06-10T07:31:06;25.70;99.90
2391;DHT22;22957;50.824;4.360;2023-06-10T07:33:32;26.20;99.90
2391;DHT22;22957;50.824;4.360;2023-06-10T07:35:58;25.70;99.90
2391;DHT22;22957;50.824;4.360;2023-06-10T07:38:25;27.00;99.90
2391;DHT22;22957;50.824;4.360;2023-06-10T07:40:51;27.20;98.40
2391;DHT22;22957;50.824;4.360;2023-06-10T07:43:16;27.00;98.80
2391;DHT22;22957;50.824;4.360;2023-06-10T07:45:43;26.70;98.60
2391;DHT22;22957;50.824;4.360;2023-06-10T07:48:09;26.70;99.30
2391;DHT22;22957;50.824;4.360;2023-06-10T07:50:34;26.50;99.50
2391;DHT22;22957;50.824;4.360;2023-06-10T07:53:00;27.00;98.20
2391;DHT22;22957;50.824;4.360;2023-06-10T07:55:26;26.00;99.10
2391;DHT22;22957;50.824;4.360;2023-06-10T07:57:52;26.90;98.30
2391;DHT22;22957;50.824;4.360;2023-06-10T08:00:19;26.60;98.60
2391;DHT22;22957;50.824;4.360;2023-06-10T08:02:44;27.60;98.10
2391;DHT22;22957;50.824;4.360;2023-06-10T08:05:10;26.50;98.00
2391;DHT22;22957;50.824;4.360;2023-06-10T08:07:36;27.00;98.20
2391;DHT22;22957;50.824;4.360;2023-06-10T08:10:03;26.60;98.80
2391;DHT22;22957;50.824;4.360;2023-06-10T08:12:29;26.60;98.50
2391;DHT22;22957;50.824;4.360;2023-06-10T08:14:55;26.50;98.00
2391;DHT22;22957;50.824;4.360;2023-06-10T08:17:21;26.40;98.20
2391;DHT22;22957;50.824;4.360;2023-06-10T08:19:46;27.80;97.00
2391;DHT22;22957;50.824;4.360;2023-06-10T08:22:12;26.90;97.20
2391;DHT22;22957;50.824;4.360;2023-06-10T08:24:38;28.30;95.80
2391;DHT22;22957;50.824;4.360;2023-06-10T08:27:03;28.50;95.50
2391;DHT22;22957;50.824;4.360;2023-06-10T08:29:31;27.30;96.60
2391;DHT22;22957;50.824;4.360;2023-06-10T08:31:57;28.20;96.50
2391;DHT22;22957;50.824;4.360;2023-06-10T08:34:23;28.20;95.70
2391;DHT22;22957;50.824;4.360;2023-06-10T08:36:48;27.70;95.40
2391;DHT22;22957;50.824;4.360;2023-06-10T08:39:19;27.80;95.60
2391;DHT22;22957;50.824;4.360;2023-06-10T08:41:51;29.90;94.50
2391;DHT22;22957;50.824;4.360;2023-06-10T08:44:29;30.40;92.30
2391;DHT22;22957;50.824;4.360;2023-06-10T08:46:59;29.20;93.40
2391;DHT22;22957;50.824;4.360;2023-06-10T08:49:27;29.80;92.90
2391;DHT22;22957;50.824;4.360;2023-06-10T08:51:58;30.30;91.90
2391;DHT22;22957;50.824;4.360;2023-06-10T08:54:27;31.90;91.00
2391;DHT22;22957;50.824;4.360;2023-06-10T08:56:55;31.70;89.60
2391;DHT22;22957;50.824;4.360;2023-06-10T08:59:21;31.00;89.30
2391;DHT22;22957;50.824;4.360;2023-06-10T09:01:47;28.70;91.40
2391;DHT22;22957;50.824;4.360;2023-06-10T09:04:13;28.40;92.00
2391;DHT22;22957;50.824;4.360;2023-06-10T09:06:40;29.90;91.30
2391;DHT22;22957;50.824;4.360;2023-06-10T09:09:06;30.70;90.40
2391;DHT22;22957;50.824;4.360;2023-06-10T09:11:32;31.10;90.30
2391;DHT22;22957;50.824;4.360;2023-06-10T09:13:58;31.60;89.00
2391;DHT22;22957;50.824;4.360;2023-06-10T09:16:27;30.10;89.00
2391;DHT22;22957;50.824;4.360;2023-06-10T09:18:52;29.60;90.00
2391;DHT22;22957;50.824;4.360;2023-06-10T09:21:23;29.90;90.10
2391;DHT22;22957;50.824;4.360;2023-06-10T09:23:50;30.70;90.50
2391;DHT22;22957;50.824;4.360;2023-06-10T09:26:16;29.50;90.00
2391;DHT22;22957;50.824;4.360;2023-06-10T09:28:44;28.40;91.20
2391;DHT22;22957;50.824;4.360;2023-06-10T09:31:09;29.80;90.50
2391;DHT22;22957;50.824;4.360;2023-06-10T09:33:39;30.60;89.80
2391;DHT22;22957;50.824;4.360;2023-06-10T09:36:05;30.00;88.00
2391;DHT22;22957;50.824;4.360;2023-06-10T09:38:32;30.30;89.40
2391;DHT22;22957;50.824;4.360;2023-06-10T09:40:59;31.20;88.10
2391;DHT22;22957;50.824;4.360;2023-06-10T09:43:43;31.40;87.10
2391;DHT22;22957;50.824;4.360;2023-06-10T09:46:16;31.30;84.90
2391;DHT22;22957;50.824;4.360;2023-06-10T09:48:43;31.90;84.40
2391;DHT22;22957;50.824;4.360;2023-06-10T09:51:10;32.60;80.40
2391;DHT22;22957;50.824;4.360;2023-06-10T09:53:36;32.80;80.50
2391;DHT22;22957;50.824;4.360;2023-06-10T09:56:02;31.30;81.20
2391;DHT22;22957;50.824;4.360;2023-06-10T09:58:38;31.40;81.40
2391;DHT22;22957;50.824;4.360;2023-06-10T10:01:12;31.70;82.00
2391;DHT22;22957;50.824;4.360;2023-06-10T10:03:49;30.20;84.40
2391;DHT22;22957;50.824;4.360;2023-06-10T10:06:16;29.30;87.50
2391;DHT22;22957;50.824;4.360;2023-06-10T10:08:43;30.90;84.10
2391;DHT22;22957;50.824;4.360;2023-06-10T10:11:10;32.00;81.90
2391;DHT22;22957;50.824;4.360;2023-06-10T10:13:37;32.20;81.30
2391;DHT22;22957;50.824;4.360;2023-06-10T10:16:10;33.20;77.40
2391;DHT22;22957;50.824;4.360;2023-06-10T10:18:41;33.00;77.30
2391;DHT22;22957;50.824;4.360;2023-06-10T10:21:13;33.40;76.20
2391;DHT22;22957;50.824;4.360;2023-06-10T10:26:23;31.90;75.80
2391;DHT22;22957;50.824;4.360;2023-06-10T10:29:03;31.80;75.10
2391;DHT22;22957;50.824;4.360;2023-06-10T10:31:32;32.40;75.40
2391;DHT22;22957;50.824;4.360;2023-06-10T10:34:02;31.40;76.50
2391;DHT22;22957;50.824;4.360;2023-06-10T10:36:30;31.10;75.90
2391;DHT22;22957;50.824;4.360;2023-06-10T10:38:57;31.70;75.30
2391;DHT22;22957;50.824;4.360;2023-06-10T10:41:24;31.50;72.30
2391;DHT22;22957;50.824;4.360;2023-06-10T10:43:52;31.40;69.70
2391;DHT22;22957;50.824;4.360;2023-06-10T10:46:18;31.50;68.50
2391;DHT22;22957;50.824;4.360;2023-06-10T10:48:44;32.80;65.70
2391;DHT22;22957;50.824;4.360;2023-06-10T10:51:11;31.60;67.80
2391;DHT22;22957;50.824;4.360;2023-06-10T10:53:38;30.60;72.20
2391;DHT22;22957;50.824;4.360;2023-06-10T10:56:12;31.20;71.00
2391;DHT22;22957;50.824;4.360;2023-06-10T10:58:38;30.70;68.80
2391;DHT22;22957;50.824;4.360;2023-06-10T11:01:14;30.20;73.50
2391;DHT22;22957;50.824;4.360;2023-06-10T11:03:49;29.90;73.80
2391;DHT22;22957;50.824;4.360;2023-06-10T11:06:15;30.90;71.70
2391;DHT22;22957;50.824;4.360;2023-06-10T11:11:23;31.40;66.40
2391;DHT22;22957;50.824;4.360;2023-06-10T11:14:06;32.20;64.40
2391;DHT22;22957;50.824;4.360;2023-06-10T11:16:43;30.40;69.30
2391;DHT22;22957;50.824;4.360;2023-06-10T11:19:09;30.40;64.90
2391;DHT22;22957;50.824;4.360;2023-06-10T11:22:07;31.10;65.20
2391;DHT22;22957;50.824;4.360;2023-06-10T11:24:33;31.40;64.80
2391;DHT22;22957;50.824;4.360;2023-06-10T11:27:18;32.00;66.20
2391;DHT22;22957;50.824;4.360;2023-06-10T11:32:30;30.70;66.60
2391;DHT22;22957;50.824;4.360;2023-06-10T11:35:00;31.50;66.00
2391;DHT22;22957;50.824;4.360;2023-06-10T11:37:28;31.80;63.80
2391;DHT22;22957;50.824;4.360;2023-06-10T11:39:56;31.70;64.10
2391;DHT22;22957;50.824;4.360;2023-06-10T11:42:22;31.40;63.60
2391;DHT22;22957;50.824;4.360;2023-06-10T11:44:52;31.50;63.20
2391;DHT22;22957;50.824;4.360;2023-06-10T11:47:19;31.40;62.70
2391;DHT22;22957;50.824;4.360;2023-06-10T11:49:46;30.40;65.20
2391;DHT22;22957;50.824;4.360;2023-06-10T11:52:12;31.00;66.30
2391;DHT22;22957;50.824;4.360;2023-06-10T11:54:38;30.80;66.50
2391;DHT22;22957;50.824;4.360;2023-06-10T11:57:04;30.40;65.90
2391;DHT22;22957;50.824;4.360;2023-06-10T11:59:30;30.30;66.70
2391;DHT22;22957;50.824;4.360;2023-06-10T12:01:56;30.60;65.10
2391;DHT22;22957;50.824;4.360;2023-06-10T12:04:22;30.80;65.40
2391;DHT22;22957;50.824;4.360;2023-06-10T12:06:49;30.90;66.40
2391;DHT22;22957;50.824;4.360;2023-06-10T12:09:30;31.70;65.20
2391;DHT22;22957;50.824;4.360;2023-06-10T12:12:03;32.50;63.90
2391;DHT22;22957;50.824;4.360;2023-06-10T12:19:58;31.70;65.00
2391;DHT22;22957;50.824;4.360;2023-06-10T12:22:25;30.70;65.20
2391;DHT22;22957;50.824;4.360;2023-06-10T12:25:01;30.20;66.60
2391;DHT22;22957;50.824;4.360;2023-06-10T12:27:32;31.00;66.20
2391;DHT22;22957;50.824;4.360;2023-06-10T12:29:58;31.10;65.10
2391;DHT22;22957;50.824;4.360;2023-06-10T12:32:42;32.00;63.20
2391;DHT22;22957;50.824;4.360;2023-06-10T12:35:10;30.50;65.50
2391;DHT22;22957;50.824;4.360;2023-06-10T12:37:36;30.40;65.90
2391;DHT22;22957;50.824;4.360;2023-06-10T12:40:05;30.20;65.70
2391;DHT22;22957;50.824;4.360;2023-06-10T12:42:32;30.40;67.20
2391;DHT22;22957;50.824;4.360;2023-06-10T12:45:00;30.60;66.20
2391;DHT22;22957;50.824;4.360;2023-06-10T12:47:33;30.90;66.20
2391;DHT22;22957;50.824;4.360;2023-06-10T12:50:06;31.40;65.30
2391;DHT22;22957;50.824;4.360;2023-06-10T12:52:32;31.50;65.70
2391;DHT22;22957;50.824;4.360;2023-06-10T12:54:58;31.60;63.30
2391;DHT22;22957;50.824;4.360;2023-06-10T12:57:24;31.80;62.30
2391;DHT22;22957;50.824;4.360;2023-06-10T12:59:50;31.00;64.90
2391;DHT22;22957;50.824;4.360;2023-06-10T13:02:20;31.80;64.60
2391;DHT22;22957;50.824;4.360;2023-06-10T13:04:49;32.00;64.20
2391;DHT22;22957;50.824;4.360;2023-06-10T13:07:15;30.80;65.00
2391;DHT22;22957;50.824;4.360;2023-06-10T13:09:41;31.70;65.00
2391;DHT22;22957;50.824;4.360;2023-06-10T13:12:07;32.70;64.50
2391;DHT22;22957;50.824;4.360;2023-06-10T13:14:33;31.40;64.90
2391;DHT22;22957;50.824;4.360;2023-06-10T13:16:59;31.50;66.30
2391;DHT22;22957;50.824;4.360;2023-06-10T13:19:24;30.60;65.90
2391;DHT22;22957;50.824;4.360;2023-06-10T13:21:51;30.40;66.60
2391;DHT22;22957;50.824;4.360;2023-06-10T13:24:17;30.90;66.90
2391;DHT22;22957;50.824;4.360;2023-06-10T13:26:42;31.10;65.80
2391;DHT22;22957;50.824;4.360;2023-06-10T13:29:08;31.60;65.80
2391;DHT22;22957;50.824;4.360;2023-06-10T13:31:39;31.80;64.60
2391;DHT22;22957;50.824;4.360;2023-06-10T13:34:04;32.20;63.90
2391;DHT22;22957;50.824;4.360;2023-06-10T13:36:30;32.30;64.00
2391;DHT22;22957;50.824;4.360;2023-06-10T13:38:55;31.70;61.50
2391;DHT22;22957;50.824;4.360;2023-06-10T13:41:21;32.10;63.60
2391;DHT22;22957;50.824;4.360;2023-06-10T13:43:46;30.70;63.80
2391;DHT22;22957;50.824;4.360;2023-06-10T13:46:12;31.40;65.60
2391;DHT22;22957;50.824;4.360;2023-06-10T13:48:38;30.80;64.50
2391;DHT22;22957;50.824;4.360;2023-06-10T13:51:04;30.90;64.90
2391;DHT22;22957;50.824;4.360;2023-06-10T13:53:29;31.60;63.70
2391;DHT22;22957;50.824;4.360;2023-06-10T13:55:55;32.30;62.90
2391;DHT22;22957;50.824;4.360;2023-06-10T13:58:21;31.80;63.40
2391;DHT22;22957;50.824;4.360;2023-06-10T14:00:46;31.90;63.50
2391;DHT22;22957;50.824;4.360;2023-06-10T14:03:12;31.60;63.10
2391;DHT22;22957;50.824;4.360;2023-06-10T14:05:38;31.80;62.20
2391;DHT22;22957;50.824;4.360;2023-06-10T14:08:04;31.00;62.90
2391;DHT22;22957;50.824;4.360;2023-06-10T14:10:30;31.60;62.90
2391;DHT22;22957;50.824;4.360;2023-06-10T14:12:55;31.10;62.50
2391;DHT22;22957;50.824;4.360;2023-06-10T14:15:21;31.20;62.50
2391;DHT22;22957;50.824;4.360;2023-06-10T14:17:47;31.30;62.30
2391;DHT22;22957;50.824;4.360;2023-06-10T14:20:12;31.30;62.80
2391;DHT22;22957;50.824;4.360;2023-06-10T14:22:38;30.70;63.10
2391;DHT22;22957;50.824;4.360;2023-06-10T14:25:04;31.70;62.00
2391;DHT22;22957;50.824;4.360;2023-06-10T14:27:30;31.00;63.10
2391;DHT22;22957;50.824;4.360;2023-06-10T14:29:55;30.90;62.10
2391;DHT22;22957;50.824;4.360;2023-06-10T14:32:21;31.10;62.60
2391;DHT22;22957;50.824;4.360;2023-06-10T14:34:46;31.70;62.50
2391;DHT22;22957;50.824;4.360;2023-06-10T14:37:12;32.20;63.10
2391;DHT22;22957;50.824;4.360;2023-06-10T14:39:38;31.80;61.10
2391;DHT22;22957;50.824;4.360;2023-06-10T14:42:04;30.80;61.40
2391;DHT22;22957;50.824;4.360;2023-06-10T14:44:30;31.10;62.80
2391;DHT22;22957;50.824;4.360;2023-06-10T14:46:56;30.70;62.80
2391;DHT22;22957;50.824;4.360;2023-06-10T14:49:22;30.60;61.90
2391;DHT22;22957;50.824;4.360;2023-06-10T14:51:47;30.20;63.00
2391;DHT22;22957;50.824;4.360;2023-06-10T14:54:15;30.60;64.20
2391;DHT22;22957;50.824;4.360;2023-06-10T14:56:40;30.80;62.70
2391;DHT22;22957;50.824;4.360;2023-06-10T14:59:06;30.60;61.70
2391;DHT22;22957;50.824;4.360;2023-06-10T15:01:31;31.20;62.20
2391;DHT22;22957;50.824;4.360;2023-06-10T15:03:57;31.40;61.30
2391;DHT22;22957;50.824;4.360;2023-06-10T15:06:23;31.00;61.80
2391;DHT22;22957;50.824;4.360;2023-06-10T15:08:48;31.00;62.80
2391;DHT22;22957;50.824;4.360;2023-06-10T15:11:14;31.00;63.00
2391;DHT22;22957;50.824;4.360;2023-06-10T15:13:40;31.10;61.70
2391;DHT22;22957;50.824;4.360;2023-06-10T15:16:06;31.60;61.60
2391;DHT22;22957;50.824;4.360;2023-06-10T15:18:32;31.70;61.10
2391;DHT22;22957;50.824;4.360;2023-06-10T15:20:57;31.50;60.20
2391;DHT22;22957;50.824;4.360;2023-06-10T15:23:23;31.30;61.20
2391;DHT22;22957;50.824;4.360;2023-06-10T15:25:48;30.60;62.40
2391;DHT22;22957;50.824;4.360;2023-06-10T15:28:14;31.00;62.20
2391;DHT22;22957;50.824;4.360;2023-06-10T15:30:39;30.60;61.70
2391;DHT22;22957;50.824;4.360;2023-06-10T15:33:05;30.00;62.60
2391;DHT22;22957;50.824;4.360;2023-06-10T15:35:32;30.20;63.90
2391;DHT22;22957;50.824;4.360;2023-06-10T15:37:57;30.80;63.30
2391;DHT22;22957;50.824;4.360;2023-06-10T15:40:23;30.50;62.90
2391;DHT22;22957;50.824;4.360;2023-06-10T15:42:49;30.90;62.90
2391;DHT22;22957;50.824;4.360;2023-06-10T15:45:14;30.90;62.70
2391;DHT22;22957;50.824;4.360;2023-06-10T15:47:40;30.50;63.30
2391;DHT22;22957;50.824;4.360;2023-06-10T15:50:07;30.50;63.80
2391;DHT22;22957;50.824;4.360;2023-06-10T15:52:33;30.30;64.00
2391;DHT22;22957;50.824;4.360;2023-06-10T15:54:58;30.80;64.20
2391;DHT22;22957;50.824;4.360;2023-06-10T15:57:24;31.20;63.20
2391;DHT22;22957;50.824;4.360;2023-06-10T15:59:50;31.40;63.20